createdAt,value
2018-12-27T00:02:33.819Z,101344.09
2018-12-27T00:05:49.613Z,101286.92
2018-12-27T00:09:12.269Z,101349.02
2018-12-27T00:12:27.662Z,101351.75
2018-12-27T00:15:50.056Z,101349.61
2018-12-27T00:19:05.281Z,101352.69
2018-12-27T00:22:28.052Z,101339.13
2018-12-27T00:25:43.454Z,101345.09
2018-12-27T00:28:59.030Z,101316.78
2018-12-27T00:32:21.432Z,101337.35
2018-12-27T00:35:37.317Z,101339.45
2018-12-27T00:38:52.856Z,101337.09
2018-12-27T00:42:27.809Z,101338.61
2018-12-27T00:45:50.198Z,101333.31
2018-12-27T00:49:05.619Z,101338.14
2018-12-27T00:52:28.389Z,101339.19
2018-12-27T00:55:43.508Z,101341.02
2018-12-27T00:59:06.277Z,101332.84
2018-12-27T01:02:21.884Z,101318.08
2018-12-27T01:05:44.304Z,101237.09
2018-12-27T01:09:00.379Z,101300.70
2018-12-27T01:12:22.809Z,101277.24
2018-12-27T01:15:38.201Z,101288.92
2018-12-27T01:19:00.709Z,101294.31
2018-12-27T01:22:16.303Z,101297.46
2018-12-27T01:25:39.319Z,101304.67
2018-12-27T01:28:55.092Z,101303.58
2018-12-27T01:32:17.559Z,101307.87
2018-12-27T01:35:33.410Z,101306.56
2018-12-27T01:38:56.193Z,101296.09
2018-12-27T01:42:11.673Z,101304.00
2018-12-27T01:45:34.127Z,101303.69
2018-12-27T01:48:49.328Z,101214.55
2018-12-27T01:52:12.067Z,101284.37
2018-12-27T01:55:28.010Z,101298.88
2018-12-27T01:58:50.390Z,101299.81
2018-12-27T02:02:05.669Z,101298.50
2018-12-27T02:05:28.069Z,101222.45
2018-12-27T02:08:43.474Z,101283.84
2018-12-27T02:12:07.026Z,101279.88
2018-12-27T02:15:22.958Z,101282.95
2018-12-27T02:18:38.237Z,101278.83
2018-12-27T02:22:00.920Z,101202.26
2018-12-27T02:25:15.894Z,101271.97
2018-12-27T02:28:31.207Z,101266.21
2018-12-27T02:31:53.608Z,101262.55
2018-12-27T02:35:09.052Z,101265.58
2018-12-27T02:38:24.955Z,101269.97
2018-12-27T02:41:47.400Z,101264.63
2018-12-27T02:45:03.617Z,101267.63
2018-12-27T02:48:26.017Z,101262.08
2018-12-27T02:51:41.714Z,101249.55
2018-12-27T02:54:57.366Z,101210.73
2018-12-27T02:58:19.769Z,101161.52
2018-12-27T03:01:35.039Z,101241.81
2018-12-27T03:04:50.655Z,101241.81
2018-12-27T03:08:13.330Z,101243.17
2018-12-27T03:11:29.162Z,101237.99
2018-12-27T03:14:51.848Z,101243.42
2018-12-27T03:18:07.582Z,101243.70
2018-12-27T03:21:30.305Z,101237.53
2018-12-27T03:24:45.980Z,101231.91
2018-12-27T03:28:08.426Z,101232.70
2018-12-27T03:31:23.530Z,101228.52
2018-12-27T03:34:46.198Z,101226.38
2018-12-27T03:38:01.300Z,101141.91
2018-12-27T03:41:23.677Z,101213.56
2018-12-27T03:44:39.192Z,101218.95
2018-12-27T03:48:01.663Z,101208.38
2018-12-27T03:51:17.494Z,101202.57
2018-12-27T03:54:40.197Z,101196.93
2018-12-27T03:57:55.402Z,101189.91
2018-12-27T04:01:18.103Z,101188.62
2018-12-27T04:04:33.364Z,101181.12
2018-12-27T04:07:55.785Z,101173.28
2018-12-27T04:11:11.285Z,101183.33
2018-12-27T04:14:33.928Z,101174.12
2018-12-27T04:17:49.276Z,101175.54
2018-12-27T04:21:12.066Z,101145.92
2018-12-27T04:24:28.023Z,101122.88
2018-12-27T04:27:50.802Z,101176.56
2018-12-27T04:31:06.175Z,101177.72
2018-12-27T04:34:22.674Z,101176.73
2018-12-27T04:37:45.397Z,101175.26
2018-12-27T04:41:00.906Z,101176.05
2018-12-27T04:44:24.056Z,101180.82
2018-12-27T04:47:39.139Z,101179.81
2018-12-27T04:51:01.527Z,101178.27
2018-12-27T04:54:24.124Z,101174.23
2018-12-27T04:57:46.898Z,101174.26
2018-12-27T05:01:02.536Z,101172.90
2018-12-27T05:04:24.935Z,101123.16
2018-12-27T05:07:40.227Z,101168.80
2018-12-27T05:11:03.259Z,101159.20
2018-12-27T05:14:19.049Z,101158.84
2018-12-27T05:17:41.759Z,101157.12
2018-12-27T05:20:57.444Z,101074.20
2018-12-27T05:24:19.855Z,101164.38
2018-12-27T05:27:35.622Z,101172.67
2018-12-27T05:30:50.964Z,101178.12
2018-12-27T05:34:13.368Z,101179.75
2018-12-27T05:37:29.467Z,101180.91
2018-12-27T05:40:45.356Z,101185.84
2018-12-27T05:44:07.756Z,101188.94
2018-12-27T05:47:23.252Z,101128.20
2018-12-27T05:50:38.229Z,101192.20
2018-12-27T05:54:00.972Z,101190.09
2018-12-27T05:57:15.970Z,101191.39
2018-12-27T06:00:41.169Z,101134.80
2018-12-27T06:04:16.711Z,101198.55
2018-12-27T06:07:40.114Z,101203.51
2018-12-27T06:10:55.734Z,101207.52
2018-12-27T06:14:18.691Z,101155.23
2018-12-27T06:17:34.165Z,101192.56
2018-12-27T06:20:56.544Z,101190.69
2018-12-27T06:24:11.698Z,101198.09
2018-12-27T06:27:34.747Z,101194.81
2018-12-27T06:30:50.497Z,101193.30
2018-12-27T06:34:06.181Z,101147.06
2018-12-27T06:37:28.581Z,101188.31
2018-12-27T06:40:44.076Z,101192.41
2018-12-27T06:43:59.347Z,101110.02
2018-12-27T06:47:22.054Z,101094.03
2018-12-27T06:50:37.990Z,101188.00
2018-12-27T06:54:00.409Z,101185.59
2018-12-27T06:57:15.437Z,101186.41
2018-12-27T07:00:30.605Z,101189.52
2018-12-27T07:03:53.312Z,101193.69
2018-12-27T07:07:09.050Z,101194.10
2018-12-27T07:10:31.762Z,101204.08
2018-12-27T07:13:48.066Z,101203.77
2018-12-27T07:17:10.819Z,101201.58
2018-12-27T07:20:26.336Z,101099.11
2018-12-27T07:23:48.830Z,101197.27
2018-12-27T07:27:04.948Z,101202.95
2018-12-27T07:30:27.827Z,101204.78
2018-12-27T07:33:43.469Z,101195.09
2018-12-27T07:37:05.938Z,101191.42
2018-12-27T07:40:21.051Z,101125.55
2018-12-27T07:43:43.480Z,101188.81
2018-12-27T07:46:58.670Z,101196.30
2018-12-27T07:50:21.116Z,101196.22
2018-12-27T07:53:37.151Z,101196.24
2018-12-27T07:56:59.928Z,101103.47
2018-12-27T08:00:15.389Z,101202.87
2018-12-27T08:03:37.770Z,101194.45
2018-12-27T08:06:53.618Z,101188.23
2018-12-27T08:10:16.716Z,101191.60
2018-12-27T08:13:32.091Z,101185.73
2018-12-27T08:16:54.860Z,101189.29
2018-12-27T08:20:10.326Z,101190.70
2018-12-27T08:23:32.769Z,101186.58
2018-12-27T08:26:47.762Z,101189.05
2018-12-27T08:30:10.174Z,101112.02
2018-12-27T08:33:25.560Z,101162.30
2018-12-27T08:36:48.391Z,101156.08
2018-12-27T08:40:03.790Z,101101.67
2018-12-27T08:43:26.227Z,101183.13
2018-12-27T08:46:41.403Z,101185.53
2018-12-27T08:49:44.339Z,101111.67
2018-12-27T08:53:00.144Z,101181.81
2018-12-27T08:56:22.556Z,101185.42
2018-12-27T08:59:37.858Z,101181.98
2018-12-27T09:06:27.397Z,101173.53
2018-12-27T09:09:49.885Z,101170.31
2018-12-27T09:13:05.736Z,101077.95
2018-12-27T09:16:28.545Z,101155.12
2018-12-27T09:19:44.388Z,101154.66
2018-12-27T09:22:59.940Z,101159.63
2018-12-27T09:26:22.651Z,101154.13
2018-12-27T09:29:38.114Z,101152.09
2018-12-27T09:32:53.357Z,101150.06
2018-12-27T09:36:15.737Z,101143.05
2018-12-27T09:39:31.814Z,101121.09
2018-12-27T09:42:54.206Z,101125.80
2018-12-27T09:46:10.134Z,101088.91
2018-12-27T09:49:32.867Z,101139.18
2018-12-27T09:52:48.578Z,101142.59
2018-12-27T09:56:11.315Z,101078.52
2018-12-27T09:59:26.974Z,101133.57
2018-12-27T10:02:49.379Z,101059.00
2018-12-27T10:06:04.814Z,101138.39
2018-12-27T10:09:27.579Z,101123.61
2018-12-27T10:12:42.782Z,101128.05
2018-12-27T10:16:05.200Z,101115.67
2018-12-27T10:19:20.969Z,101135.30
2018-12-27T10:22:43.403Z,101110.06
2018-12-27T10:25:58.748Z,101137.20
2018-12-27T10:29:21.441Z,101121.98
2018-12-27T10:32:36.777Z,101116.45
2018-12-27T10:35:59.503Z,101104.87
2018-12-27T10:39:15.082Z,101100.06
2018-12-27T10:42:37.592Z,101093.28
2018-12-27T10:45:53.565Z,101084.92
2018-12-27T10:49:16.260Z,101091.70
2018-12-27T10:52:32.363Z,101087.85
2018-12-27T10:55:55.508Z,101027.81
2018-12-27T10:59:12.992Z,101082.83
2018-12-27T11:02:35.727Z,101082.09
2018-12-27T11:05:51.292Z,101082.98
2018-12-27T11:09:13.716Z,101073.95
2018-12-27T11:12:29.666Z,101066.16
2018-12-27T11:15:45.087Z,101063.20
2018-12-27T11:19:00.944Z,101056.16
2018-12-27T11:22:23.357Z,101049.27
2018-12-27T11:25:38.406Z,101046.78
2018-12-27T11:29:01.138Z,101048.58
2018-12-27T11:32:14.872Z,101048.68
2018-12-27T11:35:37.592Z,101045.38
2018-12-27T11:38:53.076Z,101042.00
2018-12-27T11:42:15.468Z,101031.08
2018-12-27T11:45:30.592Z,101022.94
2018-12-27T11:48:53.295Z,101020.74
2018-12-27T11:52:08.781Z,101027.42
2018-12-27T11:55:32.539Z,101024.14
2018-12-27T11:58:48.472Z,101028.75
2018-12-27T12:02:11.900Z,101022.38
2018-12-27T12:05:27.482Z,101025.97
2018-12-27T12:08:50.207Z,101022.33
2018-12-27T12:12:05.937Z,101006.41
2018-12-27T12:15:21.257Z,101012.80
2018-12-27T12:18:36.342Z,101008.52
2018-12-27T12:21:51.843Z,101006.82
2018-12-27T12:25:14.273Z,101016.72
2018-12-27T12:28:29.387Z,100980.47
2018-12-27T12:31:44.675Z,101007.42
2018-12-27T12:35:07.100Z,100968.09
2018-12-27T12:38:25.198Z,101007.28
2018-12-27T12:45:30.296Z,101006.30
2018-12-27T12:48:52.714Z,101006.30
2018-12-27T12:52:08.469Z,101019.56
2018-12-27T12:55:31.760Z,101016.23
2018-12-27T12:58:47.195Z,101023.94
2018-12-27T13:02:10.605Z,101011.81
2018-12-27T13:05:26.037Z,100972.83
2018-12-27T13:08:41.785Z,101019.11
2018-12-27T13:11:57.535Z,101013.48
2018-12-27T13:15:13.524Z,101020.34
2018-12-27T13:18:29.058Z,101016.84
2018-12-27T13:21:51.831Z,101019.85
2018-12-27T13:25:07.463Z,101030.81
2018-12-27T13:28:23.067Z,100959.80
2018-12-27T13:31:46.334Z,101035.19
2018-12-27T13:35:13.123Z,101034.69
2018-12-27T13:38:35.563Z,101028.53
2018-12-27T13:41:50.636Z,101018.97
2018-12-27T13:45:13.036Z,100944.75
2018-12-27T13:48:28.558Z,100981.70
2018-12-27T13:51:51.606Z,101023.13
2018-12-27T13:54:54.895Z,100953.43
2018-12-27T13:58:17.700Z,101020.41
2018-12-27T14:01:33.183Z,101015.16
2018-12-27T14:04:55.864Z,101020.89
2018-12-27T14:08:11.549Z,101023.04
2018-12-27T14:11:14.868Z,101018.17
2018-12-27T14:14:30.860Z,101019.42
2018-12-27T14:17:53.241Z,101023.21
2018-12-27T14:21:08.619Z,100965.19
2018-12-27T14:24:31.713Z,101019.20
2018-12-27T14:27:46.873Z,101021.97
2018-12-27T14:31:09.273Z,101030.30
2018-12-27T14:34:25.229Z,101026.77
2018-12-27T14:37:47.642Z,101024.47
2018-12-27T14:41:03.013Z,101026.08
2018-12-27T14:44:25.726Z,101029.98
2018-12-27T14:47:43.257Z,101028.38
2018-12-27T14:51:05.684Z,101036.69
2018-12-27T14:54:21.376Z,101041.51
2018-12-27T14:57:44.053Z,101036.95
2018-12-27T15:00:59.688Z,100992.64
2018-12-27T15:04:22.075Z,100967.27
2018-12-27T15:07:37.666Z,101030.64
2018-12-27T15:11:00.687Z,101008.10
2018-12-27T15:14:16.491Z,100999.41
2018-12-27T15:17:39.206Z,101005.56
2018-12-27T15:20:54.384Z,101005.54
2018-12-27T15:24:17.122Z,101003.68
2018-12-27T15:27:32.891Z,101021.89
2018-12-27T15:30:55.641Z,101017.41
2018-12-27T15:34:11.397Z,101019.17
2018-12-27T15:37:33.796Z,100975.72
2018-12-27T15:40:49.105Z,101013.05
2018-12-27T15:44:11.841Z,101013.53
2018-12-27T15:47:27.817Z,101017.83
2018-12-27T15:50:50.615Z,101008.84
2018-12-27T15:54:06.174Z,101013.13
2018-12-27T15:57:28.876Z,101015.25
2018-12-27T16:00:45.313Z,101018.19
2018-12-27T16:04:01.275Z,100979.19
2018-12-27T16:07:17.143Z,101013.86
2018-12-27T16:10:32.497Z,101016.30
2018-12-27T16:13:55.191Z,100973.13
2018-12-27T16:17:11.089Z,101016.64
2018-12-27T16:20:33.570Z,101010.83
2018-12-27T16:23:49.122Z,101002.58
2018-12-27T16:27:04.300Z,101010.83
2018-12-27T16:30:07.763Z,101007.83
2018-12-27T16:33:23.779Z,101003.89
2018-12-27T16:36:38.883Z,100920.11
2018-12-27T16:40:01.583Z,100953.56
2018-12-27T16:43:17.212Z,101009.95
2018-12-27T16:46:39.952Z,100922.44
2018-12-27T16:49:55.786Z,101003.16
2018-12-27T16:53:11.005Z,101004.52
2018-12-27T16:56:33.405Z,101000.93
2018-12-27T16:59:49.243Z,101000.97
2018-12-27T17:03:11.649Z,101008.91
2018-12-27T17:06:14.598Z,101014.95
2018-12-27T17:09:36.995Z,101013.72
2018-12-27T17:12:52.691Z,101014.56
2018-12-27T17:16:15.106Z,101023.91
2018-12-27T17:19:30.461Z,101021.84
2018-12-27T17:22:52.872Z,101035.52
2018-12-27T17:26:08.606Z,101043.33
2018-12-27T17:29:31.049Z,101045.28
2018-12-27T17:32:47.275Z,100938.15
2018-12-27T17:36:09.658Z,101035.69
2018-12-27T17:39:25.373Z,101019.48
2018-12-27T17:42:48.050Z,101036.12
2018-12-27T17:46:03.746Z,101027.37
2018-12-27T17:49:26.160Z,101020.20
2018-12-27T17:52:41.575Z,101018.84
2018-12-27T17:56:03.965Z,101031.77
2018-12-27T17:59:19.927Z,101019.78
2018-12-27T18:02:42.640Z,101018.19
2018-12-27T18:05:58.008Z,101022.00
2018-12-27T18:09:20.407Z,101011.24
2018-12-27T18:12:35.465Z,101015.55
2018-12-27T18:15:57.853Z,101010.78
2018-12-27T18:19:13.920Z,101012.69
2018-12-27T18:22:36.326Z,101010.28
2018-12-27T18:25:51.884Z,101015.17
2018-12-27T18:29:15.284Z,101017.25
2018-12-27T18:32:30.381Z,101017.25
2018-12-27T18:35:52.798Z,101005.72
2018-12-27T18:39:08.223Z,101021.17
2018-12-27T18:42:30.953Z,100950.51
2018-12-27T18:45:46.395Z,101025.23
2018-12-27T18:49:09.394Z,101033.25
2018-12-27T18:52:24.909Z,101037.16
2018-12-27T18:55:47.626Z,101038.25
2018-12-27T18:59:02.857Z,101037.70
2018-12-27T19:02:25.254Z,101039.01
2018-12-27T19:05:40.677Z,101042.78
2018-12-27T19:09:05.716Z,101038.53
2018-12-27T19:12:40.749Z,101044.98
2018-12-27T19:16:03.471Z,100987.45
2018-12-27T19:19:19.476Z,101042.42
2018-12-27T19:23:05.290Z,101039.70
2018-12-27T19:26:20.992Z,101037.84
2018-12-27T19:29:43.820Z,101043.25
2018-12-27T19:32:59.448Z,101035.64
2018-12-27T19:36:21.822Z,101038.82
2018-12-27T19:39:37.002Z,101028.49
2018-12-27T19:43:00.587Z,100961.24
2018-12-27T19:46:16.756Z,101030.50
2018-12-27T19:49:39.479Z,101024.29
2018-12-27T19:52:55.245Z,101029.34
2018-12-27T19:56:10.413Z,101027.33
2018-12-27T19:59:25.651Z,101029.06
2018-12-27T20:02:40.842Z,100947.02
2018-12-27T20:05:56.199Z,101030.93
2018-12-27T20:09:18.602Z,101020.14
2018-12-27T20:12:34.551Z,101020.60
2018-12-27T20:15:49.798Z,101025.37
2018-12-27T20:19:12.890Z,101018.45
2018-12-27T20:22:28.417Z,101010.61
2018-12-27T20:25:43.650Z,101015.94
2018-12-27T20:29:07.436Z,101009.81
2018-12-27T20:32:22.790Z,101014.25
2018-12-27T20:35:38.644Z,101008.93
2018-12-27T20:39:01.449Z,101021.22
2018-12-27T20:42:18.881Z,101024.01
2018-12-27T20:45:41.631Z,101023.55
2018-12-27T20:48:57.796Z,101018.92
2018-12-27T20:52:20.235Z,101018.12
2018-12-27T20:55:36.108Z,101011.59
2018-12-27T20:58:51.555Z,101010.37
2018-12-27T21:01:54.515Z,101009.12
2018-12-27T21:05:17.176Z,100995.05
2018-12-27T21:08:32.299Z,100988.47
2018-12-27T21:11:55.045Z,100993.98
2018-12-27T21:15:10.097Z,101009.93
2018-12-27T21:18:33.156Z,101013.99
2018-12-27T21:21:48.606Z,101013.81
2018-12-27T21:25:11.566Z,101024.09
2018-12-27T21:28:28.014Z,101031.55
2018-12-27T21:31:51.462Z,101029.48
2018-12-27T21:35:07.131Z,101029.31
2018-12-27T21:38:29.918Z,100962.80
2018-12-27T21:41:45.592Z,101009.58
2018-12-27T21:45:07.997Z,101002.11
2018-12-27T21:48:23.493Z,101003.93
2018-12-27T21:51:45.904Z,100996.30
2018-12-27T21:55:01.377Z,100993.98
2018-12-27T21:58:23.781Z,100910.33
2018-12-27T22:01:39.108Z,101012.09
2018-12-27T22:05:01.830Z,100980.63
2018-12-27T22:08:18.167Z,101025.97
2018-12-27T22:11:40.577Z,101033.58
2018-12-27T22:14:56.205Z,100953.97
2018-12-27T22:18:18.978Z,101033.30
2018-12-27T22:21:34.992Z,100941.21
2018-12-27T22:24:58.078Z,101002.52
2018-12-27T22:28:13.130Z,101036.91
2018-12-27T22:31:35.853Z,101041.53
2018-12-27T22:34:50.960Z,101034.56
2018-12-27T22:38:14.389Z,101026.58
2018-12-27T22:41:29.568Z,101029.29
2018-12-27T22:44:52.228Z,101028.59
2018-12-27T22:48:07.775Z,101030.23
2018-12-27T22:51:22.985Z,100952.80
2018-12-27T22:54:38.154Z,101028.36
2018-12-27T22:58:00.629Z,101020.59
2018-12-27T23:01:16.128Z,101024.93
2018-12-27T23:04:38.513Z,101034.23
2018-12-27T23:07:53.986Z,101017.80
2018-12-27T23:10:57.905Z,101014.94
2018-12-27T23:14:15.307Z,101008.45
2018-12-27T23:17:37.708Z,101006.41
2018-12-27T23:20:52.922Z,101006.59
2018-12-27T23:24:15.644Z,101002.20
2018-12-27T23:27:31.475Z,101001.78
2018-12-27T23:30:53.872Z,101002.20
2018-12-27T23:34:08.989Z,100943.33
2018-12-27T23:37:31.398Z,100993.05
2018-12-27T23:40:49.423Z,100990.02
2018-12-27T23:44:11.825Z,100973.71
2018-12-27T23:47:27.396Z,100966.86
2018-12-27T23:50:43.035Z,100967.69
2018-12-27T23:53:59.620Z,100974.41
2018-12-27T23:57:21.990Z,100979.56
